createdAt,value
2022-08-10T00:01:54.081Z,100.00
2022-08-10T00:04:23.865Z,100.00
2022-08-10T00:06:55.120Z,100.00
2022-08-10T00:09:23.569Z,100.00
2022-08-10T00:11:51.236Z,100.00
2022-08-10T00:14:18.330Z,100.00
2022-08-10T00:16:45.279Z,100.00
2022-08-10T00:19:12.307Z,100.00
2022-08-10T00:21:39.656Z,100.00
2022-08-10T00:24:06.701Z,100.00
2022-08-10T00:28:00.704Z,100.00
2022-08-10T00:29:21.083Z,100.00
2022-08-10T00:31:55.957Z,100.00
2022-08-10T00:34:26.965Z,100.00
2022-08-10T00:36:53.782Z,100.00
2022-08-10T00:39:20.826Z,100.00
2022-08-10T00:42:06.700Z,100.00
2022-08-10T00:44:40.311Z,100.00
2022-08-10T00:47:36.008Z,100.00
2022-08-10T00:49:55.283Z,100.00
2022-08-10T00:52:24.667Z,100.00
2022-08-10T00:54:52.954Z,100.00
2022-08-10T00:57:20.424Z,100.00
2022-08-10T00:59:59.571Z,100.00
2022-08-10T01:02:32.115Z,100.00
2022-08-10T01:05:03.372Z,100.00
2022-08-10T01:08:21.468Z,100.00
2022-08-10T01:12:39.594Z,100.00
2022-08-10T01:14:17.512Z,100.00
2022-08-10T01:16:53.796Z,100.00
2022-08-10T01:20:05.294Z,100.00
2022-08-10T01:22:50.544Z,100.00
2022-08-10T01:25:36.090Z,100.00
2022-08-10T01:28:34.854Z,100.00
2022-08-10T01:31:04.715Z,100.00
2022-08-10T01:33:58.811Z,100.00
2022-08-10T01:36:39.973Z,100.00
2022-08-10T01:39:09.338Z,100.00
2022-08-10T01:41:46.935Z,100.00
2022-08-10T01:44:20.025Z,100.00
2022-08-10T01:46:56.941Z,100.00
2022-08-10T01:49:26.991Z,100.00
2022-08-10T01:51:56.368Z,100.00
2022-08-10T01:54:29.741Z,100.00
2022-08-10T01:56:58.396Z,100.00
2022-08-10T01:59:33.007Z,100.00
2022-08-10T02:02:06.418Z,100.00
2022-08-10T02:04:37.548Z,100.00
2022-08-10T02:07:08.612Z,100.00
2022-08-10T02:09:38.493Z,100.00
2022-08-10T02:12:09.147Z,100.00
2022-08-10T02:14:42.027Z,100.00
2022-08-10T02:17:59.904Z,100.00
2022-08-10T02:20:18.324Z,100.00
2022-08-10T02:22:49.489Z,100.00
2022-08-10T02:25:41.810Z,100.00
2022-08-10T02:28:07.330Z,100.00
2022-08-10T02:30:35.204Z,100.00
2022-08-10T02:33:03.789Z,100.00
2022-08-10T02:35:54.376Z,100.00
2022-08-10T02:38:58.900Z,100.00
2022-08-10T02:45:14.004Z,100.00
2022-08-10T02:45:19.603Z,100.00
2022-08-10T02:47:30.334Z,100.00
2022-08-10T02:50:28.019Z,100.00
2022-08-10T02:53:04.273Z,100.00
2022-08-10T02:55:39.942Z,100.00
2022-08-10T02:58:16.708Z,100.00
2022-08-10T03:00:49.861Z,100.00
2022-08-10T03:03:26.487Z,100.00
2022-08-10T03:06:09.451Z,100.00
2022-08-10T03:08:40.953Z,100.00
2022-08-10T03:11:13.808Z,100.00
2022-08-10T03:13:43.215Z,100.00
2022-08-10T03:16:10.839Z,100.00
2022-08-10T03:18:39.102Z,100.00
2022-08-10T03:21:11.716Z,100.00
2022-08-10T03:23:41.542Z,100.00
2022-08-10T03:26:09.915Z,100.00
2022-08-10T03:28:37.328Z,100.00
2022-08-10T03:31:04.734Z,100.00
2022-08-10T03:33:35.594Z,100.00
2022-08-10T03:36:43.890Z,100.00
2022-08-10T03:38:53.662Z,100.00
2022-08-10T03:41:26.875Z,100.00
2022-08-10T03:43:58.554Z,100.00
2022-08-10T03:46:28.230Z,100.00
2022-08-10T03:48:58.071Z,100.00
2022-08-10T03:51:28.917Z,100.00
2022-08-10T03:54:05.459Z,100.00
2022-08-10T03:56:36.735Z,100.00
2022-08-10T03:59:04.486Z,100.00
2022-08-10T04:02:44.654Z,100.00
2022-08-10T04:04:24.117Z,100.00
2022-08-10T04:06:54.746Z,100.00
2022-08-10T04:09:29.820Z,100.00
2022-08-10T04:12:15.518Z,100.00
2022-08-10T04:14:51.144Z,100.00
2022-08-10T04:18:04.906Z,100.00
2022-08-10T04:20:13.792Z,100.00
2022-08-10T04:22:43.444Z,100.00
2022-08-10T04:25:12.666Z,100.00
2022-08-10T04:27:39.968Z,100.00
2022-08-10T04:30:07.516Z,100.00
2022-08-10T04:32:36.467Z,100.00
2022-08-10T04:35:05.668Z,100.00
2022-08-10T04:37:34.823Z,100.00
2022-08-10T04:40:02.413Z,100.00
2022-08-10T04:42:29.427Z,100.00
2022-08-10T04:44:56.269Z,100.00
2022-08-10T04:47:57.404Z,100.00
2022-08-10T04:50:10.481Z,100.00
2022-08-10T04:52:37.803Z,100.00
2022-08-10T04:55:05.250Z,100.00
2022-08-10T04:57:32.174Z,100.00
2022-08-10T04:59:59.346Z,100.00
2022-08-10T05:02:31.205Z,100.00
2022-08-10T05:04:59.447Z,100.00
2022-08-10T05:07:26.586Z,100.00
2022-08-10T05:10:02.311Z,98.95
2022-08-10T05:12:34.521Z,95.21
2022-08-10T05:15:06.610Z,90.83
2022-08-10T05:17:35.466Z,89.39
2022-08-10T05:20:06.957Z,88.37
2022-08-10T05:22:37.206Z,85.92
2022-08-10T05:25:05.761Z,83.88
2022-08-10T05:27:33.980Z,81.97
2022-08-10T05:30:03.118Z,79.76
2022-08-10T05:32:32.484Z,76.50
2022-08-10T05:35:21.309Z,74.05
2022-08-10T05:38:12.263Z,69.85
2022-08-10T05:40:47.492Z,66.11
2022-08-10T05:43:19.190Z,61.53
2022-08-10T05:46:17.571Z,58.72
2022-08-10T05:48:41.732Z,53.43
2022-08-10T05:51:25.630Z,49.96
2022-08-10T05:54:02.116Z,50.05
2022-08-10T05:56:54.727Z,47.75
2022-08-10T06:00:33.320Z,45.78
2022-08-10T06:02:44.965Z,44.72
2022-08-10T06:05:14.806Z,43.24
2022-08-10T06:07:48.802Z,41.90
2022-08-10T06:10:31.257Z,40.51
2022-08-10T06:13:30.616Z,40.18
2022-08-10T06:16:05.604Z,38.46
2022-08-10T06:18:33.136Z,37.79
2022-08-10T06:21:01.041Z,37.60
2022-08-10T06:23:32.365Z,36.14
2022-08-10T06:26:11.092Z,35.34
2022-08-10T06:28:54.073Z,35.24
2022-08-10T06:31:35.774Z,34.64
2022-08-10T06:34:22.840Z,34.31
2022-08-10T06:36:50.544Z,34.12
2022-08-10T06:39:32.913Z,32.74
2022-08-10T06:42:16.184Z,32.70
2022-08-10T06:44:54.462Z,31.79
2022-08-10T06:47:26.719Z,31.41
2022-08-10T06:50:00.042Z,31.01
2022-08-10T06:52:32.907Z,30.59
2022-08-10T06:55:05.337Z,30.52
2022-08-10T06:57:37.359Z,30.51
2022-08-10T07:00:06.194Z,29.70
2022-08-10T07:02:41.468Z,28.90
2022-08-10T07:05:14.359Z,28.62
2022-08-10T07:07:43.859Z,28.31
2022-08-10T07:10:16.334Z,28.19
2022-08-10T07:12:45.018Z,27.58
2022-08-10T07:15:15.292Z,28.63
2022-08-10T07:17:42.490Z,30.47
2022-08-10T07:20:10.834Z,30.83
2022-08-10T07:23:27.155Z,31.34
2022-08-10T07:25:29.259Z,29.88
2022-08-10T07:28:01.533Z,29.53
2022-08-10T07:30:38.317Z,28.46
2022-08-10T07:33:07.374Z,27.69
2022-08-10T07:35:42.280Z,27.51
2022-08-10T07:38:17.336Z,26.57
2022-08-10T07:40:45.350Z,26.33
2022-08-10T07:43:12.975Z,26.17
2022-08-10T07:45:40.355Z,26.06
2022-08-10T07:48:11.939Z,25.63
2022-08-10T07:50:40.892Z,25.54
2022-08-10T07:53:12.954Z,25.77
2022-08-10T07:56:02.266Z,25.09
2022-08-10T07:58:36.989Z,24.04
2022-08-10T08:01:04.079Z,23.83
2022-08-10T08:03:33.067Z,23.48
2022-08-10T08:06:03.221Z,23.71
2022-08-10T08:08:35.423Z,24.32
2022-08-10T08:11:05.608Z,24.62
2022-08-10T08:13:34.051Z,24.59
2022-08-10T08:16:20.482Z,24.08
2022-08-10T08:19:04.071Z,23.87
2022-08-10T08:24:04.825Z,23.86
2022-08-10T08:24:33.555Z,24.03
2022-08-10T08:27:03.175Z,24.17
2022-08-10T08:29:34.473Z,25.04
2022-08-10T08:32:03.839Z,24.88
2022-08-10T08:34:39.014Z,24.59
2022-08-10T08:37:09.095Z,25.28
2022-08-10T08:39:37.383Z,24.56
2022-08-10T08:42:27.731Z,23.76
2022-08-10T08:45:06.894Z,23.20
2022-08-10T08:48:03.640Z,21.92
2022-08-10T08:51:08.624Z,23.48
2022-08-10T08:54:04.079Z,24.17
2022-08-10T08:56:49.558Z,24.73
2022-08-10T08:59:52.262Z,25.90
2022-08-10T09:02:31.301Z,27.53
2022-08-10T09:05:16.667Z,28.33
2022-08-10T09:08:10.578Z,27.83
2022-08-10T09:11:13.730Z,26.96
2022-08-10T09:13:53.432Z,26.50
2022-08-10T09:16:44.668Z,22.62
2022-08-10T09:19:35.347Z,24.15
2022-08-10T09:22:26.180Z,26.12
2022-08-10T09:25:08.223Z,27.49
2022-08-10T09:27:49.343Z,30.02
2022-08-10T09:30:29.584Z,31.06
2022-08-10T09:36:20.691Z,30.48
2022-08-10T09:36:35.438Z,28.86
2022-08-10T09:40:06.691Z,28.83
2022-08-10T09:42:34.804Z,30.24
2022-08-10T09:45:35.858Z,29.40
2022-08-10T09:48:30.621Z,29.90
2022-08-10T09:51:45.953Z,30.50
2022-08-10T09:54:28.491Z,28.13
2022-08-10T09:57:44.444Z,26.89
2022-08-10T10:00:15.601Z,25.54
2022-08-10T10:02:49.374Z,24.59
2022-08-10T10:05:33.084Z,22.28
2022-08-10T10:08:44.726Z,22.69
2022-08-10T10:11:24.002Z,21.19
2022-08-10T10:14:12.769Z,24.01
2022-08-10T10:16:44.253Z,25.09
2022-08-10T10:19:24.688Z,25.67
2022-08-10T10:22:24.167Z,24.63
2022-08-10T10:24:59.698Z,23.54
2022-08-10T10:27:40.707Z,21.79
2022-08-10T10:30:12.427Z,21.55
2022-08-10T10:32:59.345Z,23.12
2022-08-10T10:35:36.995Z,23.75
2022-08-10T10:38:08.970Z,24.64
2022-08-10T10:40:45.630Z,26.23
2022-08-10T10:43:29.683Z,26.62
2022-08-10T10:46:23.452Z,29.33
2022-08-10T10:49:20.866Z,31.94
2022-08-10T10:52:26.519Z,33.02
2022-08-10T10:55:12.428Z,32.90
2022-08-10T10:58:07.342Z,30.44
2022-08-10T11:00:46.345Z,29.57
2022-08-10T11:03:13.184Z,27.82
2022-08-10T11:05:49.494Z,28.17
2022-08-10T11:08:47.152Z,27.93
2022-08-10T11:12:00.225Z,30.46
2022-08-10T11:14:29.104Z,31.60
2022-08-10T11:17:18.041Z,33.62
2022-08-10T11:20:04.166Z,34.49
2022-08-10T11:22:50.356Z,35.51
2022-08-10T11:25:33.009Z,38.15
2022-08-10T11:28:21.723Z,40.20
2022-08-10T11:30:57.467Z,43.61
2022-08-10T11:33:32.851Z,47.08
2022-08-10T11:36:20.930Z,51.26
2022-08-10T11:39:14.910Z,53.24
2022-08-10T11:42:10.196Z,56.25
2022-08-10T11:44:40.556Z,66.78
2022-08-10T11:47:34.477Z,69.36
2022-08-10T11:50:16.889Z,74.28
2022-08-10T11:53:02.252Z,67.18
2022-08-10T11:55:32.825Z,64.50
2022-08-10T11:58:29.975Z,67.20
2022-08-10T12:01:04.126Z,71.29
2022-08-10T12:03:38.093Z,71.50
2022-08-10T12:06:12.221Z,70.73
2022-08-10T12:10:04.240Z,70.91
2022-08-10T12:11:29.854Z,67.90
2022-08-10T12:14:20.208Z,54.85
2022-08-10T12:16:51.073Z,56.27
2022-08-10T12:20:01.639Z,48.96
2022-08-10T12:22:47.487Z,43.48
2022-08-10T12:25:56.986Z,38.03
2022-08-10T12:28:29.095Z,36.13
2022-08-10T12:31:13.538Z,35.76
2022-08-10T12:34:02.307Z,35.87
2022-08-10T12:36:39.971Z,36.24
2022-08-10T12:39:15.476Z,33.56
2022-08-10T12:41:50.044Z,31.33
2022-08-10T12:44:42.110Z,29.48
2022-08-10T12:47:27.651Z,31.30
2022-08-10T12:50:31.067Z,30.05
2022-08-10T12:53:28.345Z,30.72
2022-08-10T12:55:56.849Z,30.65
2022-08-10T12:58:59.615Z,29.92
2022-08-10T13:01:16.493Z,31.23
2022-08-10T13:04:20.533Z,33.11
2022-08-10T13:06:46.455Z,32.61
2022-08-10T13:09:14.784Z,32.73
2022-08-10T13:12:35.624Z,32.84
2022-08-10T13:14:58.232Z,31.54
2022-08-10T13:17:39.032Z,33.42
2022-08-10T13:20:30.016Z,34.25
2022-08-10T13:23:01.336Z,33.90
2022-08-10T13:25:36.355Z,35.68
2022-08-10T13:28:34.872Z,36.38
2022-08-10T13:30:56.599Z,38.53
2022-08-10T13:34:41.246Z,39.79
2022-08-10T13:36:15.608Z,41.82
2022-08-10T13:38:45.728Z,43.15
2022-08-10T13:41:12.793Z,44.04
2022-08-10T13:43:50.804Z,44.94
2022-08-10T13:46:22.726Z,43.51
2022-08-10T13:48:54.035Z,43.89
2022-08-10T13:51:54.092Z,45.09
2022-08-10T13:54:14.490Z,45.25
2022-08-10T13:56:50.748Z,46.21
2022-08-10T13:59:19.084Z,45.84
2022-08-10T14:01:50.629Z,46.90
2022-08-10T14:04:18.959Z,46.20
2022-08-10T14:06:55.584Z,47.22
2022-08-10T14:09:31.337Z,48.77
2022-08-10T14:11:59.441Z,48.40
2022-08-10T14:14:29.499Z,48.84
2022-08-10T14:16:58.638Z,48.48
2022-08-10T14:19:29.404Z,48.71
2022-08-10T14:21:57.538Z,49.99
2022-08-10T14:24:29.417Z,49.30
2022-08-10T14:27:18.158Z,48.85
2022-08-10T14:29:53.587Z,49.40
2022-08-10T14:32:24.073Z,50.76
2022-08-10T14:36:14.896Z,52.38
2022-08-10T14:37:47.400Z,53.36
2022-08-10T14:40:17.997Z,54.91
2022-08-10T14:42:56.242Z,54.37
2022-08-10T14:45:24.559Z,50.47
2022-08-10T14:48:03.549Z,50.15
2022-08-10T14:50:33.508Z,48.31
2022-08-10T14:53:09.749Z,48.23
2022-08-10T14:55:58.911Z,47.73
2022-08-10T14:58:31.453Z,47.07
2022-08-10T15:01:00.027Z,46.64
2022-08-10T15:04:00.740Z,46.26
2022-08-10T15:06:30.245Z,46.26
2022-08-10T15:09:19.225Z,46.93
2022-08-10T15:12:14.304Z,45.97
2022-08-10T15:14:45.060Z,44.29
2022-08-10T15:17:23.670Z,42.35
2022-08-10T15:20:02.162Z,40.58
2022-08-10T15:22:37.934Z,40.97
2022-08-10T15:25:17.697Z,40.08
2022-08-10T15:27:54.285Z,39.16
2022-08-10T15:30:31.032Z,39.87
2022-08-10T15:33:57.579Z,39.32
2022-08-10T15:36:35.251Z,39.94
2022-08-10T15:39:16.528Z,40.53
2022-08-10T15:42:02.835Z,40.21
2022-08-10T15:44:44.672Z,39.60
2022-08-10T15:47:23.341Z,40.50
2022-08-10T15:50:22.761Z,41.00
2022-08-10T15:53:15.818Z,41.34
2022-08-10T15:55:59.425Z,41.92
2022-08-10T15:58:40.184Z,42.35
2022-08-10T16:02:13.768Z,42.94
2022-08-10T16:04:19.531Z,43.43
2022-08-10T16:07:09.595Z,44.11
2022-08-10T16:10:23.156Z,44.58
2022-08-10T16:12:42.506Z,46.68
2022-08-10T16:15:15.532Z,47.87
2022-08-10T16:17:56.150Z,48.75
2022-08-10T16:20:54.742Z,51.23
2022-08-10T16:23:43.589Z,53.73
2022-08-10T16:26:17.449Z,54.40
2022-08-10T16:28:57.900Z,56.45
2022-08-10T16:31:27.737Z,58.46
2022-08-10T16:33:58.464Z,60.01
2022-08-10T16:36:54.199Z,61.63
2022-08-10T16:39:58.555Z,62.77
2022-08-10T16:42:29.260Z,64.55
2022-08-10T16:45:05.365Z,64.62
2022-08-10T16:47:44.397Z,64.87
2022-08-10T16:50:15.526Z,63.13
2022-08-10T16:52:44.989Z,62.03
2022-08-10T16:55:24.250Z,61.25
2022-08-10T16:58:08.665Z,59.15
2022-08-10T17:00:36.727Z,58.73
2022-08-10T17:03:22.677Z,58.33
2022-08-10T17:06:03.658Z,58.86
2022-08-10T17:08:48.064Z,59.87
2022-08-10T17:11:17.497Z,56.05
2022-08-10T17:13:44.950Z,55.17
2022-08-10T17:16:14.636Z,54.44
2022-08-10T17:18:46.663Z,55.48
2022-08-10T17:21:20.374Z,55.49
2022-08-10T17:23:51.617Z,56.01
2022-08-10T17:26:35.213Z,54.90
2022-08-10T17:29:17.079Z,51.97
2022-08-10T17:32:01.182Z,49.02
2022-08-10T17:34:33.339Z,48.21
2022-08-10T17:37:04.163Z,49.38
2022-08-10T17:39:41.089Z,49.77
2022-08-10T17:42:09.447Z,49.76
2022-08-10T17:44:39.075Z,50.92
2022-08-10T17:47:10.934Z,52.15
2022-08-10T17:49:39.832Z,54.21
2022-08-10T17:52:10.335Z,56.00
2022-08-10T17:54:44.487Z,57.34
2022-08-10T17:57:18.561Z,58.17
2022-08-10T17:59:47.001Z,58.64
2022-08-10T18:02:20.047Z,59.19
2022-08-10T18:05:09.507Z,59.29
2022-08-10T18:07:40.560Z,59.50
2022-08-10T18:10:10.084Z,59.80
2022-08-10T18:12:49.423Z,60.47
2022-08-10T18:15:19.797Z,60.53
2022-08-10T18:17:51.077Z,61.51
2022-08-10T18:20:28.155Z,62.37
2022-08-10T18:22:57.312Z,62.62
2022-08-10T18:25:30.191Z,63.70
2022-08-10T18:28:04.413Z,64.35
2022-08-10T18:30:45.664Z,65.33
2022-08-10T18:33:14.264Z,67.23
2022-08-10T18:35:43.959Z,67.71
2022-08-10T18:38:13.375Z,67.75
2022-08-10T18:40:42.821Z,68.19
2022-08-10T18:44:06.857Z,70.44
2022-08-10T18:46:00.887Z,72.45
2022-08-10T18:48:37.552Z,72.71
2022-08-10T18:51:06.617Z,71.88
2022-08-10T18:53:37.450Z,73.09
2022-08-10T18:56:22.584Z,73.85
2022-08-10T18:59:35.932Z,75.00
2022-08-10T19:02:08.673Z,76.90
2022-08-10T19:05:00.348Z,78.57
2022-08-10T19:07:45.759Z,79.28
2022-08-10T19:10:37.833Z,79.86
2022-08-10T19:13:17.940Z,80.29
2022-08-10T19:16:03.787Z,81.56
2022-08-10T19:18:34.464Z,82.77
2022-08-10T19:21:27.151Z,82.42
2022-08-10T19:24:15.120Z,82.47
2022-08-10T19:26:57.271Z,83.27
2022-08-10T19:30:10.182Z,86.20
2022-08-10T19:32:11.036Z,87.73
2022-08-10T19:34:37.847Z,90.13
2022-08-10T19:37:05.193Z,91.67
2022-08-10T19:39:50.386Z,93.27
2022-08-10T19:42:30.149Z,95.50
2022-08-10T19:46:00.650Z,96.86
2022-08-10T19:48:09.412Z,100.00
2022-08-10T19:50:56.458Z,100.00
2022-08-10T19:53:35.512Z,100.00
2022-08-10T19:56:33.737Z,100.00
2022-08-10T19:59:07.462Z,100.00
2022-08-10T20:01:56.269Z,100.00
2022-08-10T20:04:35.444Z,100.00
2022-08-10T20:07:14.079Z,100.00
2022-08-10T20:10:00.342Z,100.00
2022-08-10T20:13:08.633Z,100.00
2022-08-10T20:15:42.067Z,100.00
2022-08-10T20:18:23.697Z,100.00
2022-08-10T20:21:12.424Z,100.00
2022-08-10T20:24:05.710Z,100.00
2022-08-10T20:26:40.952Z,100.00
2022-08-10T20:29:58.229Z,100.00
2022-08-10T20:32:18.310Z,100.00
2022-08-10T20:34:50.267Z,100.00
2022-08-10T20:38:02.917Z,100.00
2022-08-10T20:40:29.354Z,100.00
2022-08-10T20:43:03.633Z,100.00
2022-08-10T20:46:04.952Z,100.00
2022-08-10T20:48:48.019Z,100.00
2022-08-10T20:51:21.246Z,100.00
2022-08-10T20:53:52.438Z,100.00
2022-08-10T20:56:42.509Z,100.00
2022-08-10T21:00:04.406Z,100.00
2022-08-10T21:02:48.958Z,100.00
2022-08-10T21:05:40.640Z,100.00
2022-08-10T21:08:27.880Z,100.00
2022-08-10T21:11:28.613Z,100.00
2022-08-10T21:14:27.561Z,100.00
2022-08-10T21:17:17.750Z,100.00
2022-08-10T21:20:08.181Z,100.00
2022-08-10T21:25:42.144Z,100.00
2022-08-10T21:26:16.245Z,100.00
2022-08-10T21:29:01.195Z,100.00
2022-08-10T21:31:41.542Z,100.00
2022-08-10T21:34:20.152Z,100.00
2022-08-10T21:37:08.519Z,100.00
2022-08-10T21:40:06.075Z,100.00
2022-08-10T21:43:20.563Z,100.00
2022-08-10T21:46:09.493Z,100.00
2022-08-10T21:49:01.436Z,100.00
2022-08-10T21:52:07.902Z,100.00
2022-08-10T21:55:56.248Z,100.00
2022-08-10T21:58:55.111Z,100.00
2022-08-10T22:02:08.478Z,100.00
2022-08-10T22:04:53.966Z,100.00
2022-08-10T22:07:40.754Z,100.00
2022-08-10T22:10:30.273Z,100.00
2022-08-10T22:13:21.573Z,100.00
2022-08-10T22:16:13.797Z,100.00
2022-08-10T22:19:03.743Z,100.00
2022-08-10T22:22:20.072Z,100.00
2022-08-10T22:25:34.422Z,100.00
2022-08-10T22:28:20.080Z,100.00
2022-08-10T22:31:32.208Z,100.00
2022-08-10T22:34:33.464Z,100.00
2022-08-10T22:37:42.473Z,100.00
2022-08-10T22:40:37.809Z,100.00
2022-08-10T22:43:36.161Z,100.00
2022-08-10T22:46:30.519Z,100.00
2022-08-10T22:49:00.506Z,100.00
2022-08-10T22:51:36.405Z,100.00
2022-08-10T22:54:52.269Z,100.00
2022-08-10T22:57:38.640Z,100.00
2022-08-10T23:00:15.786Z,100.00
2022-08-10T23:03:10.256Z,100.00
2022-08-10T23:05:42.283Z,100.00
2022-08-10T23:08:30.558Z,100.00
2022-08-10T23:11:06.485Z,100.00
2022-08-10T23:13:37.749Z,100.00
2022-08-10T23:16:32.553Z,100.00
2022-08-10T23:19:09.884Z,100.00
2022-08-10T23:22:07.753Z,100.00
2022-08-10T23:24:43.381Z,100.00
2022-08-10T23:27:37.330Z,100.00
2022-08-10T23:30:11.068Z,100.00
2022-08-10T23:32:47.969Z,100.00
2022-08-10T23:36:29.691Z,100.00
2022-08-10T23:38:06.894Z,100.00
2022-08-10T23:40:36.365Z,100.00
2022-08-10T23:43:05.043Z,100.00
2022-08-10T23:45:53.707Z,100.00
2022-08-10T23:48:30.325Z,100.00
2022-08-10T23:51:01.403Z,100.00
2022-08-10T23:53:31.878Z,100.00
2022-08-10T23:56:25.031Z,100.00
2022-08-10T23:58:57.160Z,100.00
